Cheshire, Oregon
Current Conditions -  °F | °C
As of 8:54 AM on Thursday 23 Oct 2014 (Local Time) from KEUG Reporting Station
Overcast Overcast  
Wind Chill: 56°   Ceiling: 2500
Heat Index: 56°   Visibility: 10mi
Dew Point: 52°   Wind: 10mph
Humidity: 87%   Direction: 190°S
Pressure: 29.87"   Gusts: NA
Location:  44.19°N, 123.29°W
Report Text: KEUG 231554Z 19009KT 10SM BKN025 BKN032 OVC055 13/11 A2987 RMK AO2 RAE09 SLP115 P0001 T01330111
Loading
Personal Weather Stations






























Interactive Weather Map New forecast layout! Learn more

10-Day Weather Forecast

Advertisements
Track Severe Weather on mobile